Time;durP1;ratioP1;P1;durP2;ratioP2;P2;SDS_P1;SDS_P2;PMS_P1;PMS_P2;Temp;Humidity;BMP_temperature;BMP_pressure;BME280_temperature;BME280_humidity;BME280_pressure;Samples;Min_cycle;Max_cycle;Signal;HPM_P1;HPM_P2
2021/11/19 00:02:21;;;;;;;85.30;33.30;;;;;;;1.71;61.37;99655.27;24323;1363;3051008;-70
2021/11/19 00:04:49;;;;;;;96.80;36.60;;;;;;;1.96;60.41;99651.98;24480;1367;3026669;-69
2021/11/19 00:07:18;;;;;;;96.40;38.30;;;;;;;1.90;61.18;99648.64;24462;1367;3052915;-76
2021/11/19 00:09:47;;;;;;;91.40;34.00;;;;;;;1.93;61.05;99643.41;24275;1364;3026508;-74
2021/11/19 00:12:17;;;;;;;85.70;30.80;;;;;;;1.84;61.72;99645.16;24308;1364;3051549;-71
2021/11/19 00:14:47;;;;;;;92.40;34.50;;;;;;;2.04;60.98;99640.92;24361;1370;3026185;-69
2021/11/19 00:17:16;;;;;;;97.80;38.30;;;;;;;2.05;61.49;99638.64;24297;1363;3026669;-73
2021/11/19 00:19:45;;;;;;;108.90;38.20;;;;;;;2.05;61.38;99628.62;24461;1363;3048805;-71
2021/11/19 00:22:15;;;;;;;100.20;36.60;;;;;;;2.00;61.73;99625.11;24425;1367;3026141;-67
2021/11/19 00:24:44;;;;;;;84.10;34.30;;;;;;;2.01;61.64;99619.89;24310;1363;3055467;-70
2021/11/19 00:27:14;;;;;;;88.40;34.90;;;;;;;2.06;61.58;99614.09;24300;1370;3026540;-66
2021/11/19 00:29:46;;;;;;;92.30;33.90;;;;;;;2.05;61.75;99614.61;24315;1364;3053461;-72
2021/11/19 00:32:15;;;;;;;87.40;34.10;;;;;;;2.05;62.01;99613.58;24337;1364;3027167;-70
2021/11/19 00:34:44;;;;;;;96.40;35.00;;;;;;;2.06;62.01;99613.05;24260;1367;3026358;-69
2021/11/19 00:37:15;;;;;;;87.90;37.60;;;;;;;2.11;62.08;99613.08;24320;1365;3051879;-70
2021/11/19 00:39:44;;;;;;;102.30;37.10;;;;;;;2.15;61.59;99616.10;24291;1363;3026389;-74
2021/11/19 00:42:13;;;;;;;102.70;41.40;;;;;;;2.11;62.02;99620.01;24284;1368;3025900;-71
2021/11/19 00:44:42;;;;;;;85.20;32.80;;;;;;;2.16;62.10;99614.38;24280;1363;3026273;-72
2021/11/19 00:47:14;;;;;;;110.30;41.10;;;;;;;2.31;61.15;99608.11;24319;1370;3058903;-69
2021/11/19 00:49:43;;;;;;;102.00;40.30;;;;;;;2.29;61.52;99593.64;24291;1363;3025911;-70
2021/11/19 00:52:13;;;;;;;126.00;46.60;;;;;;;2.22;62.15;99587.78;24287;1366;3026626;-71
2021/11/19 00:54:42;;;;;;;171.30;56.50;;;;;;;2.21;62.37;99585.55;24317;1367;3055976;-72
2021/11/19 00:57:14;;;;;;;170.90;57.00;;;;;;;2.27;62.58;99579.35;24282;1367;3028256;-77
2021/11/19 00:59:43;;;;;;;177.00;56.40;;;;;;;2.32;63.28;99573.70;24309;1367;3051567;-70
2021/11/19 01:02:18;;;;;;;168.70;54.00;;;;;;;2.36;63.18;99579.30;24315;1360;3026071;-69
2021/11/19 01:04:47;;;;;;;131.30;46.70;;;;;;;2.37;63.84;99583.77;24267;1370;3026918;-68
2021/11/19 01:07:17;;;;;;;130.40;44.50;;;;;;;2.37;64.10;99584.98;24297;1363;3026632;-69
2021/11/19 01:09:53;;;;;;;99.20;37.20;;;;;;;2.36;64.57;99576.02;24284;1366;3028471;-69
2021/11/19 01:12:34;;;;;;;101.70;37.50;;;;;;;2.37;65.36;99568.56;24246;1367;3071615;-68
2021/11/19 01:15:21;;;;;;;122.60;42.00;;;;;;;2.40;65.35;99573.50;24278;1364;3026577;-68
2021/11/19 01:17:53;;;;;;;118.00;41.70;;;;;;;2.50;64.54;99574.98;24303;1363;3051743;-70
2021/11/19 01:20:24;;;;;;;114.00;41.20;;;;;;;2.53;64.21;99586.13;24301;1370;3028642;-71
2021/11/19 01:22:56;;;;;;;109.70;39.80;;;;;;;2.48;64.42;99594.20;24295;1370;3027260;-71
2021/11/19 01:25:28;;;;;;;115.40;40.70;;;;;;;2.42;64.68;99585.05;24354;1364;3028349;-72
2021/11/19 01:27:58;;;;;;;110.50;38.70;;;;;;;2.36;65.49;99576.89;24298;1365;3026880;-76
2021/11/19 01:30:31;;;;;;;114.50;39.30;;;;;;;2.40;65.35;99576.43;24352;1359;3026595;-70
2021/11/19 01:33:11;;;;;;;111.80;39.90;;;;;;;2.44;65.55;99576.50;24328;1367;3069173;-72
2021/11/19 01:35:53;;;;;;;117.20;39.10;;;;;;;2.51;65.30;99575.47;24176;1366;3051890;-70
2021/11/19 01:38:28;;;;;;;110.10;39.30;;;;;;;2.46;65.94;99575.59;24297;1364;3052257;-74
2021/11/19 01:41:11;;;;;;;120.20;42.20;;;;;;;2.48;65.73;99569.83;24331;1364;3054408;-70
2021/11/19 01:43:41;;;;;;;129.90;42.50;;;;;;;2.52;65.82;99566.63;24242;1369;3056941;-71
2021/11/19 01:46:18;;;;;;;110.30;39.20;;;;;;;2.60;65.27;99567.28;24296;1364;3026634;-66
2021/11/19 01:48:48;;;;;;;114.50;41.00;;;;;;;2.69;64.75;99568.24;24225;1366;3052911;-69
2021/11/19 01:51:29;;;;;;;117.30;39.80;;;;;;;2.68;65.25;99568.61;24289;1363;3026245;-70
2021/11/19 01:54:04;;;;;;;103.60;39.10;;;;;;;2.57;65.88;99569.79;24298;1365;3068712;-70
2021/11/19 01:56:44;;;;;;;99.30;38.60;;;;;;;2.59;65.29;99565.92;24325;1370;3052331;-72
2021/11/19 01:59:34;;;;;;;110.20;40.20;;;;;;;2.43;66.17;99559.42;24297;1360;3053336;-65
2021/11/19 02:02:19;;;;;;;108.40;38.40;;;;;;;2.39;66.47;99559.69;24347;1365;3051829;-74
2021/11/19 02:04:52;;;;;;;94.10;34.30;;;;;;;2.37;66.79;99556.63;24229;1370;3059449;-65
2021/11/19 02:07:32;;;;;;;85.20;34.60;;;;;;;2.35;66.89;99555.48;24276;1363;3051433;-69
2021/11/19 02:10:55;;;;;;;93.70;34.30;;;;;;;2.41;66.81;99543.56;24285;1365;3052633;-70
2021/11/19 02:13:42;;;;;;;92.10;33.60;;;;;;;2.41;66.97;99538.02;24199;1364;3054745;-66
2021/11/19 02:16:48;;;;;;;92.30;34.70;;;;;;;2.39;67.51;99531.88;24297;1367;3071716;-71
2021/11/19 02:19:33;;;;;;;98.30;34.50;;;;;;;2.44;66.72;99533.45;24329;1367;3048998;-69
2021/11/19 02:22:12;;;;;;;98.50;35.80;;;;;;;2.51;66.30;99541.05;24326;1365;3052451;-70
2021/11/19 02:24:47;;;;;;;113.90;39.20;;;;;;;2.45;67.01;99534.83;24303;1367;3051704;-65
2021/11/19 02:27:21;;;;;;;111.10;37.00;;;;;;;2.43;67.01;99537.45;24362;1370;3056180;-73
2021/11/19 02:30:07;;;;;;;95.40;35.10;;;;;;;2.44;67.33;99532.92;24314;1370;3026467;-69
2021/11/19 02:32:44;;;;;;;102.70;37.00;;;;;;;2.41;67.74;99532.66;24343;1363;3056048;-67
2021/11/19 02:35:21;;;;;;;71.50;31.40;;;;;;;2.48;67.47;99531.46;24382;1365;3051934;-67
2021/11/19 02:37:54;;;;;;;74.70;29.60;;;;;;;2.49;67.89;99532.27;24441;1370;3071452;-66
2021/11/19 02:40:27;;;;;;;78.00;28.60;;;;;;;2.57;67.61;99528.29;24419;1370;3027030;-69
2021/11/19 02:43:05;;;;;;;73.90;26.10;;;;;;;2.67;67.34;99525.25;24480;1363;3026734;-68
2021/11/19 02:45:41;;;;;;;85.50;33.40;;;;;;;3.37;65.87;99528.77;24403;1365;3051463;-73
2021/11/19 02:48:12;;;;;;;97.20;37.10;;;;;;;3.76;61.45;99522.21;24352;1368;3059230;-69
2021/11/19 02:50:42;;;;;;;95.80;35.40;;;;;;;3.81;60.50;99523.63;24417;1367;3026561;-70
2021/11/19 02:53:11;;;;;;;98.60;36.00;;;;;;;3.61;60.84;99524.94;24436;1364;3028931;-67
2021/11/19 02:55:43;;;;;;;95.70;39.30;;;;;;;3.65;61.27;99514.25;24427;1368;3026876;-71
2021/11/19 02:58:16;;;;;;;102.30;37.70;;;;;;;3.44;61.37;99506.92;24317;1366;3027619;-69
2021/11/19 03:01:31;;;;;;;106.80;42.00;;;;;;;3.06;61.97;99509.94;24287;1367;3027617;-69
2021/11/19 03:04:03;;;;;;;99.30;36.80;;;;;;;2.62;62.83;99506.02;24320;1365;3055045;-69
2021/11/19 03:06:36;;;;;;;103.40;39.10;;;;;;;2.43;63.48;99507.73;24349;1364;3029193;-72
2021/11/19 03:09:06;;;;;;;106.70;39.90;;;;;;;2.32;63.68;99507.66;24299;1364;3026610;-71
2021/11/19 03:11:35;;;;;;;111.60;39.40;;;;;;;2.16;64.02;99501.15;24361;1365;3027202;-64
2021/11/19 03:14:05;;;;;;;107.40;40.20;;;;;;;2.12;64.48;99499.73;24521;1371;3026988;-71
2021/11/19 03:16:36;;;;;;;108.60;39.20;;;;;;;1.92;65.06;99499.52;24406;1363;3027713;-71
2021/11/19 03:19:06;;;;;;;91.00;34.90;;;;;;;1.83;65.79;99501.98;24276;1371;3026058;-70
2021/11/19 03:21:35;;;;;;;110.20;37.90;;;;;;;1.71;66.43;99501.23;24328;1364;3026003;-74
2021/11/19 03:24:05;;;;;;;90.50;33.90;;;;;;;1.62;66.78;99501.95;24267;1370;3026677;-71
2021/11/19 03:26:34;;;;;;;106.90;35.00;;;;;;;1.55;67.30;99505.08;24307;1364;3026649;-71
2021/11/19 03:29:12;;;;;;;92.80;34.60;;;;;;;1.56;66.96;99497.97;24512;1364;3052362;-68
2021/11/19 03:31:44;;;;;;;94.40;34.50;;;;;;;1.52;67.05;99497.54;24423;1370;3026655;-69
2021/11/19 03:34:14;;;;;;;82.60;32.60;;;;;;;1.55;67.04;99492.64;24280;1367;3029578;-75
2021/11/19 03:36:47;;;;;;;94.20;34.30;;;;;;;1.52;67.12;99486.83;24253;1370;3030668;-65
2021/11/19 03:39:18;;;;;;;83.60;30.10;;;;;;;1.46;67.63;99483.87;24315;1364;3054840;-70
2021/11/19 03:41:49;;;;;;;72.50;27.90;;;;;;;1.52;67.22;99480.08;24267;1364;3027194;-68
2021/11/19 03:44:21;;;;;;;77.70;28.10;;;;;;;1.67;66.69;99486.30;24300;1364;3026464;-68
2021/11/19 03:46:56;;;;;;;75.80;27.00;;;;;;;1.73;66.79;99486.67;24267;1363;3026539;-70
2021/11/19 03:49:26;;;;;;;84.40;29.60;;;;;;;1.69;67.92;99485.92;24319;1363;3051995;-73
2021/11/19 03:52:08;;;;;;;72.90;28.60;;;;;;;1.65;67.58;99480.82;24212;1367;3026632;-73
2021/11/19 03:54:39;;;;;;;77.20;29.80;;;;;;;1.62;67.95;99482.27;24250;1370;3071317;-69
2021/11/19 03:57:09;;;;;;;78.20;26.60;;;;;;;1.59;68.25;99483.04;24336;1370;3026925;-70
2021/11/19 03:59:39;;;;;;;90.10;32.50;;;;;;;1.66;67.48;99478.04;24294;1370;3026692;-76
2021/11/19 04:02:21;;;;;;;71.20;26.90;;;;;;;1.42;68.50;99486.89;24275;1371;3054514;-71
2021/11/19 04:04:51;;;;;;;80.10;30.20;;;;;;;1.52;68.10;99490.28;24350;1366;3028154;-70
2021/11/19 04:07:21;;;;;;;84.00;30.90;;;;;;;1.55;67.98;99481.92;24324;1361;3026726;-68
2021/11/19 04:09:51;;;;;;;66.30;23.20;;;;;;;1.41;69.17;99481.38;24345;1363;3027099;-70
2021/11/19 04:12:22;;;;;;;67.30;26.20;;;;;;;2.27;68.36;99481.98;24280;1365;3028685;-72
2021/11/19 04:14:52;;;;;;;57.80;21.80;;;;;;;3.10;65.17;99487.19;24300;1373;3026916;-74
2021/11/19 04:17:21;;;;;;;81.10;29.90;;;;;;;2.87;65.49;99491.30;24311;1367;3030906;-72
2021/11/19 04:19:50;;;;;;;86.10;31.70;;;;;;;2.88;64.67;99488.32;24330;1368;3026793;-68
2021/11/19 04:22:20;;;;;;;93.10;33.50;;;;;;;2.46;65.66;99491.93;24265;1363;3069140;-73
2021/11/19 04:24:54;;;;;;;83.90;30.60;;;;;;;2.28;66.09;99493.41;24311;1360;3026588;-71
2021/11/19 04:27:24;;;;;;;108.40;37.50;;;;;;;2.00;67.28;99492.40;24323;1367;3051776;-69
2021/11/19 04:30:10;;;;;;;89.60;33.00;;;;;;;1.82;67.67;99492.34;24276;1366;3052562;-74
2021/11/19 04:32:39;;;;;;;74.90;27.60;;;;;;;1.67;68.75;99482.33;24220;1366;3028376;-68
2021/11/19 04:35:08;;;;;;;86.70;30.70;;;;;;;1.63;68.92;99487.79;24246;1370;3026781;-72
2021/11/19 04:37:37;;;;;;;89.70;31.60;;;;;;;1.65;68.74;99487.04;24268;1366;3050802;-69
2021/11/19 04:40:12;;;;;;;75.40;29.60;;;;;;;1.57;69.27;99489.28;24290;1363;3056232;-68
2021/11/19 04:42:42;;;;;;;78.30;30.40;;;;;;;1.63;68.55;99493.65;24288;1366;3026571;-68
2021/11/19 04:45:12;;;;;;;79.50;31.90;;;;;;;1.65;69.03;99489.79;24325;1368;3028258;-65
2021/11/19 04:47:45;;;;;;;72.10;28.70;;;;;;;1.67;68.92;99487.50;24327;1366;3052121;-72
2021/11/19 04:50:16;;;;;;;74.80;29.80;;;;;;;1.56;70.67;99490.17;24272;1366;3026559;-67
2021/11/19 04:52:47;;;;;;;70.40;25.00;;;;;;;1.62;70.19;99487.27;24278;1365;3028313;-72
2021/11/19 04:55:18;;;;;;;65.70;24.10;;;;;;;2.26;69.76;99484.64;24297;1363;3026156;-72
2021/11/19 04:57:47;;;;;;;65.20;25.80;;;;;;;3.01;66.90;99487.09;24256;1364;3027039;-70
2021/11/19 05:00:23;;;;;;;72.60;26.90;;;;;;;3.00;66.72;99479.67;24321;1363;3026026;-71
2021/11/19 05:03:13;;;;;;;72.30;27.00;;;;;;;2.88;66.31;99485.58;24306;1368;3052419;-70
2021/11/19 05:05:43;;;;;;;66.90;23.90;;;;;;;2.80;66.52;99487.34;24332;1364;3029802;-69
2021/11/19 05:08:12;;;;;;;51.60;23.10;;;;;;;2.72;66.51;99484.28;24385;1367;3026828;-72
2021/11/19 05:10:42;;;;;;;71.90;28.90;;;;;;;2.37;68.35;99484.54;24280;1370;3026167;-69
2021/11/19 05:13:15;;;;;;;83.20;28.00;;;;;;;2.21;68.99;99493.10;24303;1368;3054091;-73
2021/11/19 05:15:53;;;;;;;66.30;26.50;;;;;;;2.17;69.71;99491.10;24355;1364;3058967;-74
2021/11/19 05:18:24;;;;;;;63.60;25.50;;;;;;;2.17;69.73;99493.55;24338;1364;3028189;-67
2021/11/19 05:20:55;;;;;;;58.70;22.60;;;;;;;2.14;69.74;99493.96;24304;1367;3026221;-66
2021/11/19 05:23:24;;;;;;;51.60;23.70;;;;;;;2.03;70.45;99488.54;24344;1364;3027575;-72
2021/11/19 05:25:58;;;;;;;65.50;23.40;;;;;;;2.05;70.49;99482.09;24317;1367;3069355;-70
2021/11/19 05:28:28;;;;;;;54.20;21.90;;;;;;;2.08;70.47;99480.29;24292;1364;3029541;-73
2021/11/19 05:31:02;;;;;;;49.30;19.50;;;;;;;2.06;71.29;99469.80;24285;1366;3026836;-71
2021/11/19 05:33:32;;;;;;;49.60;21.10;;;;;;;2.71;70.30;99467.37;24328;1366;3028018;-73
2021/11/19 05:36:01;;;;;;;70.10;26.70;;;;;;;3.27;67.51;99466.42;24327;1367;3027304;-70
2021/11/19 05:38:30;;;;;;;71.40;29.00;;;;;;;3.38;67.03;99462.96;24309;1368;3026112;-71
2021/11/19 05:40:59;;;;;;;63.00;25.80;;;;;;;3.29;66.58;99460.11;24265;1363;3051899;-69
2021/11/19 05:43:29;;;;;;;72.90;27.80;;;;;;;3.07;67.31;99462.34;24310;1368;3027415;-68
2021/11/19 05:46:06;;;;;;;66.80;25.80;;;;;;;2.79;68.47;99462.28;24269;1357;3049616;-68
2021/11/19 05:48:57;;;;;;;69.90;27.20;;;;;;;2.82;68.22;99460.64;24311;1363;3055884;-72
2021/11/19 05:51:27;;;;;;;66.20;26.60;;;;;;;2.62;69.06;99459.13;24313;1367;3027249;-68
2021/11/19 05:53:56;;;;;;;71.70;29.00;;;;;;;2.54;69.61;99456.94;24294;1368;3028854;-71
2021/11/19 05:56:28;;;;;;;64.80;27.40;;;;;;;2.31;70.75;99450.47;24316;1364;3052236;-68
2021/11/19 05:58:58;;;;;;;63.80;24.40;;;;;;;2.35;70.76;99455.21;24326;1368;3026428;-72
2021/11/19 06:01:45;;;;;;;62.90;24.20;;;;;;;2.34;71.15;99465.29;24330;1361;3068552;-69
2021/11/19 06:04:15;;;;;;;70.10;25.60;;;;;;;2.34;70.51;99468.73;24342;1364;3026826;-72
2021/11/19 06:07:12;;;;;;;52.50;17.10;;;;;;;2.02;72.48;99461.95;24340;1370;3055307;-68
2021/11/19 06:09:51;;;;;;;52.80;20.60;;;;;;;3.18;69.80;99463.21;24439;1364;3052212;-70
2021/11/19 06:12:23;;;;;;;46.80;20.40;;;;;;;3.51;67.87;99459.77;24351;1366;3026665;-69
2021/11/19 06:14:54;;;;;;;58.30;22.70;;;;;;;3.52;67.22;99451.95;24339;1370;3055250;-65
2021/11/19 06:17:36;;;;;;;61.50;23.80;;;;;;;3.29;67.86;99453.53;24299;1364;3053416;-69
2021/11/19 06:20:41;;;;;;;47.90;20.70;;;;;;;3.01;68.22;99451.80;24330;1365;3028371;-68
2021/11/19 06:23:20;;;;;;;51.90;21.50;;;;;;;2.91;68.47;99446.70;24283;1369;3049831;-68
2021/11/19 06:25:50;;;;;;;58.80;23.80;;;;;;;2.68;69.39;99442.73;24354;1365;3028954;-74
2021/11/19 06:28:22;;;;;;;69.20;28.90;;;;;;;2.43;70.34;99447.05;24308;1367;3026603;-74
2021/11/19 06:30:52;;;;;;;57.70;24.50;;;;;;;2.33;70.99;99446.46;24162;1362;3245491;-68
2021/11/19 06:33:22;;;;;;;69.70;27.90;;;;;;;2.44;70.07;99447.34;24245;1368;3026706;-74
2021/11/19 06:35:51;;;;;;;73.80;28.10;;;;;;;2.38;70.27;99448.04;24330;1368;3054849;-68
2021/11/19 06:38:22;;;;;;;66.40;29.70;;;;;;;2.26;71.11;99455.96;24363;1368;3027882;-70
2021/11/19 06:41:02;;;;;;;71.30;28.10;;;;;;;2.30;71.18;99454.82;24447;1370;3056127;-72
2021/11/19 06:43:50;;;;;;;56.10;24.60;;;;;;;2.58;69.72;99455.80;24322;1357;3050471;-74
2021/11/19 06:46:36;;;;;;;62.00;24.20;;;;;;;2.42;71.02;99452.42;24278;1367;3071803;-76
2021/11/19 06:49:23;;;;;;;45.90;16.30;;;;;;;2.61;70.26;99450.34;24299;1360;3048945;-71
2021/11/19 06:52:09;;;;;;;53.90;20.50;;;;;;;3.57;68.04;99444.84;24325;1367;3055287;-74
2021/11/19 06:54:42;;;;;;;46.80;21.30;;;;;;;4.09;66.29;99439.66;24293;1370;3026551;-71
2021/11/19 06:57:19;;;;;;;59.50;23.50;;;;;;;4.04;65.14;99441.75;24302;1365;3056244;-70
2021/11/19 06:59:49;;;;;;;58.40;26.60;;;;;;;3.72;65.72;99447.51;24340;1364;3026145;-69
2021/11/19 07:02:20;;;;;;;48.70;22.20;;;;;;;3.40;66.75;99450.78;24297;1370;3026288;-69
2021/11/19 07:04:49;;;;;;;55.40;23.50;;;;;;;3.14;67.31;99452.27;24239;1372;3027284;-73
2021/11/19 07:07:19;;;;;;;60.10;23.30;;;;;;;2.95;67.91;99448.16;24275;1364;3026657;-73
2021/11/19 07:09:50;;;;;;;55.60;23.90;;;;;;;2.78;68.35;99447.96;24289;1363;3028303;-70
2021/11/19 07:12:22;;;;;;;58.70;24.90;;;;;;;2.70;68.60;99449.06;24270;1363;3054770;-72
2021/11/19 07:14:59;;;;;;;56.20;24.90;;;;;;;2.78;68.41;99445.38;24285;1363;3051661;-73
2021/11/19 07:17:28;;;;;;;55.60;24.50;;;;;;;2.84;68.34;99439.12;24297;1366;3029120;-73
2021/11/19 07:19:58;;;;;;;57.00;25.50;;;;;;;2.77;68.85;99445.39;24301;1367;3052885;-71
2021/11/19 07:22:27;;;;;;;66.40;25.70;;;;;;;2.73;69.02;99442.24;24263;1368;3026308;-71
2021/11/19 07:25:06;;;;;;;71.60;26.60;;;;;;;2.73;69.00;99445.86;24354;1363;3059321;-79
2021/11/19 07:27:36;;;;;;;62.30;24.20;;;;;;;2.60;69.53;99447.09;24381;1367;3026570;-72
2021/11/19 07:30:08;;;;;;;67.20;28.20;;;;;;;2.64;69.36;99451.84;24313;1364;3027488;-72
2021/11/19 07:32:56;;;;;;;85.20;32.20;;;;;;;2.72;68.95;99455.41;24301;1363;3051378;-70
2021/11/19 07:35:45;;;;;;;101.50;37.70;;;;;;;2.80;68.70;99451.71;24263;1365;3068892;-75
2021/11/19 07:38:22;;;;;;;105.80;41.60;;;;;;;2.90;68.56;99449.69;24343;1363;3049481;-68
2021/11/19 07:41:24;;;;;;;138.90;51.00;;;;;;;2.92;68.42;99447.90;24261;1369;3054675;-68
2021/11/19 07:44:04;;;;;;;126.10;49.10;;;;;;;2.78;69.26;99453.33;24306;1360;3052156;-70
2021/11/19 07:46:58;;;;;;;105.00;39.00;;;;;;;2.74;70.18;99449.64;24284;1369;3059059;-69
2021/11/19 07:49:27;;;;;;;102.90;37.70;;;;;;;3.52;68.56;99442.05;24267;1370;3028281;-73
2021/11/19 07:52:45;;;;;;;101.80;40.40;;;;;;;4.34;65.80;99443.70;30792;1357;3026184;-73
2021/11/19 07:55:15;;;;;;;138.80;57.00;;;;;;;4.61;65.05;99444.10;24443;1357;3026499;-73
2021/11/19 07:57:44;;;;;;;105.40;45.30;;;;;;;4.58;64.01;99434.98;24452;1358;3027544;-69
2021/11/19 08:00:16;;;;;;;95.40;41.40;;;;;;;4.14;65.33;99428.41;24321;1361;3027252;-71
2021/11/19 08:02:51;;;;;;;106.00;43.30;;;;;;;4.19;65.20;99426.51;24435;1359;3051100;-69
2021/11/19 08:05:21;;;;;;;104.90;45.20;;;;;;;4.06;65.63;99421.59;24288;1362;3235498;-72
2021/11/19 08:08:05;;;;;;;113.00;45.20;;;;;;;4.14;65.33;99416.63;24437;1359;3056034;-68
2021/11/19 08:10:36;;;;;;;116.20;47.10;;;;;;;4.01;65.95;99416.92;24443;1361;3026898;-65
2021/11/19 08:13:05;;;;;;;116.00;45.50;;;;;;;3.88;66.49;99416.48;24540;1360;3026930;-73
2021/11/19 08:15:35;;;;;;;105.30;41.70;;;;;;;3.96;66.32;99409.27;24401;1358;3026821;-74
2021/11/19 08:18:20;;;;;;;110.90;41.10;;;;;;;3.98;66.02;99405.05;24437;1359;3027308;-72
2021/11/19 08:20:52;;;;;;;107.40;44.30;;;;;;;3.81;66.59;99406.84;24416;1348;3052708;-74
2021/11/19 08:23:24;;;;;;;125.80;47.90;;;;;;;3.78;66.88;99400.52;24471;1361;3028231;-74
2021/11/19 08:25:53;;;;;;;140.90;53.90;;;;;;;3.72;67.26;99397.27;24419;1357;3027228;-71
2021/11/19 08:28:22;;;;;;;157.90;59.60;;;;;;;3.72;67.67;99392.76;24490;1361;3027901;-71
2021/11/19 08:30:51;;;;;;;142.40;52.20;;;;;;;3.83;66.60;99394.31;24453;1354;3053045;-72
2021/11/19 08:33:20;;;;;;;134.90;52.40;;;;;;;3.90;66.58;99394.93;24422;1361;3026331;-72
2021/11/19 08:35:49;;;;;;;133.90;51.80;;;;;;;3.94;66.54;99398.60;24465;1354;3052162;-72
2021/11/19 08:38:20;;;;;;;136.80;52.90;;;;;;;4.02;66.29;99391.40;24471;1354;3026531;-75
2021/11/19 08:40:49;;;;;;;142.00;52.20;;;;;;;3.88;67.46;99390.81;24449;1362;3027561;-72
2021/11/19 08:43:21;;;;;;;136.40;50.40;;;;;;;3.87;67.67;99391.40;24397;1357;3026692;-75
2021/11/19 08:45:52;;;;;;;137.00;46.30;;;;;;;3.91;67.60;99380.86;24398;1354;3027941;-71
2021/11/19 08:48:23;;;;;;;124.20;45.20;;;;;;;4.03;67.32;99381.46;24401;1360;3027492;-70
2021/11/19 08:50:52;;;;;;;130.20;46.30;;;;;;;4.08;67.55;99378.71;24417;1357;3025977;-73
2021/11/19 08:53:21;;;;;;;131.60;49.50;;;;;;;4.15;67.60;99375.17;24751;1358;3026129;-71
2021/11/19 08:55:53;;;;;;;129.30;49.90;;;;;;;4.33;66.97;99374.67;24401;1357;3053874;-74
2021/11/19 08:58:25;;;;;;;137.10;47.20;;;;;;;4.39;66.87;99376.23;24500;1361;3027324;-74
2021/11/19 09:00:55;;;;;;;124.50;50.30;;;;;;;4.51;66.61;99368.11;24441;1357;3026340;-68
2021/11/19 09:03:25;;;;;;;137.20;49.20;;;;;;;4.66;66.52;99361.83;24426;1357;3027447;-69
2021/11/19 09:05:54;;;;;;;120.70;48.20;;;;;;;4.84;66.07;99357.17;24478;1354;3027028;-65
2021/11/19 09:08:25;;;;;;;107.20;40.70;;;;;;;4.78;66.47;99353.75;24488;1355;3027130;-68
2021/11/19 09:10:55;;;;;;;118.40;44.30;;;;;;;4.85;66.47;99354.19;24457;1355;3052914;-71
2021/11/19 09:13:25;;;;;;;140.40;50.60;;;;;;;4.95;66.08;99357.08;24539;1354;3026540;-75
2021/11/19 09:15:56;;;;;;;157.00;54.50;;;;;;;4.95;65.74;99355.34;24467;1354;3026116;-71
2021/11/19 09:18:28;;;;;;;179.90;63.60;;;;;;;4.93;65.74;99348.84;24459;1357;3028394;-72
2021/11/19 09:21:15;;;;;;;191.00;62.70;;;;;;;4.99;65.32;99344.97;24413;1361;3026558;-74
2021/11/19 09:23:47;;;;;;;166.60;57.60;;;;;;;4.85;65.67;99346.91;24425;1355;3051419;-72
2021/11/19 09:26:32;;;;;;;153.30;54.60;;;;;;;4.71;66.23;99345.02;24456;1355;3027340;-72
2021/11/19 09:29:05;;;;;;;155.10;54.40;;;;;;;4.84;65.92;99339.47;24477;1355;3052049;-67
2021/11/19 09:31:36;;;;;;;165.50;56.00;;;;;;;4.84;65.96;99337.38;24426;1360;3027338;-69
2021/11/19 09:34:05;;;;;;;153.00;51.50;;;;;;;4.96;65.83;99330.68;24464;1359;3026617;-70
2021/11/19 09:36:35;;;;;;;161.60;54.60;;;;;;;5.04;65.62;99321.81;24611;1360;3026183;-73
2021/11/19 09:39:05;;;;;;;162.40;49.80;;;;;;;4.96;66.22;99322.85;24503;1351;3027235;-71
2021/11/19 09:41:51;;;;;;;158.30;48.90;;;;;;;4.88;66.62;99316.56;24500;1359;3028052;-76
2021/11/19 09:44:35;;;;;;;153.80;48.70;;;;;;;5.13;65.65;99315.39;24521;1356;3052057;-74
2021/11/19 09:47:38;;;;;;;164.30;50.80;;;;;;;5.22;65.47;99312.11;24509;1354;3056498;-69
2021/11/19 09:50:29;;;;;;;160.70;50.10;;;;;;;5.30;65.31;99304.83;24443;1355;3052502;-70
2021/11/19 09:53:36;;;;;;;126.10;40.10;;;;;;;5.21;65.73;99303.46;24622;1354;3052495;-66
2021/11/19 09:56:33;;;;;;;172.60;52.30;;;;;;;5.09;66.12;99303.77;24454;1361;3051696;-71
2021/11/19 09:59:02;;;;;;;158.80;50.40;;;;;;;4.83;67.07;99303.26;24470;1354;3068367;-71
2021/11/19 10:01:50;;;;;;;150.10;47.10;;;;;;;4.89;67.10;99299.35;24436;1362;3026353;-73
2021/11/19 10:04:36;;;;;;;152.10;49.30;;;;;;;4.99;66.96;99298.08;24479;1348;3052453;-71
2021/11/19 10:07:24;;;;;;;162.70;46.80;;;;;;;5.10;66.54;99295.38;24439;1361;3053322;-70
2021/11/19 10:10:05;;;;;;;134.40;43.40;;;;;;;4.91;67.17;99305.16;24504;1361;3059099;-71
2021/11/19 10:12:42;;;;;;;148.10;47.30;;;;;;;4.85;67.41;99303.14;24374;1361;3051874;-67
2021/11/19 10:15:20;;;;;;;126.60;43.20;;;;;;;4.88;67.44;99299.23;24426;1358;3057484;-71
2021/11/19 10:18:00;;;;;;;123.40;43.00;;;;;;;4.86;67.44;99297.21;24458;1354;3053255;-72
2021/11/19 10:21:13;;;;;;;136.30;42.40;;;;;;;4.67;68.17;99296.77;24419;1360;3069313;-71
2021/11/19 10:23:45;;;;;;;127.90;47.40;;;;;;;4.70;68.20;99291.27;24441;1354;3049575;-67
2021/11/19 10:34:04;;;;;;;99.10;36.00;;;;;;;6.46;63.13;99277.14;24443;1360;3058659;-67
2021/11/19 10:37:02;;;;;;;128.60;42.80;;;;;;;6.18;63.04;99274.27;24431;1356;3052678;-67
2021/11/19 10:39:34;;;;;;;103.40;37.60;;;;;;;6.07;63.29;99275.08;24457;1361;3053269;-71
2021/11/19 10:42:32;;;;;;;112.60;41.10;;;;;;;5.69;64.59;99273.64;24500;1354;3026801;-69
2021/11/19 10:45:07;;;;;;;121.70;44.90;;;;;;;5.58;64.81;99273.23;24474;1360;3071029;-70
2021/11/19 10:48:04;;;;;;;116.20;45.00;;;;;;;5.33;65.81;99267.52;24431;1361;3050769;-71
2021/11/19 10:51:00;;;;;;;125.30;44.50;;;;;;;5.18;66.12;99263.46;24466;1354;3054659;-73
2021/11/19 10:54:03;;;;;;;124.50;41.20;;;;;;;5.11;66.43;99254.19;24471;1355;3052631;-67
2021/11/19 10:56:35;;;;;;;121.70;44.00;;;;;;;5.24;65.67;99250.70;24386;1357;3058855;-71
2021/11/19 10:59:23;;;;;;;118.10;43.20;;;;;;;5.06;66.74;99255.61;24500;1355;3026604;-71
2021/11/19 11:01:58;;;;;;;134.90;49.80;;;;;;;5.02;66.96;99256.12;24482;1354;3053460;-64
2021/11/19 11:04:38;;;;;;;;;;;;;;;4.76;68.14;99253.01;24890;1359;3050991;-72
2021/11/19 11:07:11;;;;;;;127.90;48.30;;;;;;;4.52;69.31;99247.01;24409;1361;3067228;-71
2021/11/19 11:09:50;;;;;;;115.50;44.30;;;;;;;4.70;68.37;99241.64;24396;1354;3026317;-69
2021/11/19 11:12:19;;;;;;;120.10;45.40;;;;;;;4.68;68.46;99241.52;24438;1356;3051818;-72
2021/11/19 11:15:19;;;;;;;113.90;43.20;;;;;;;4.64;68.86;99233.91;24410;1354;3026382;-71
2021/11/19 11:18:22;;;;;;;129.20;46.60;;;;;;;4.51;69.40;99234.91;24392;1360;3051555;-67
2021/11/19 11:21:14;;;;;;;109.50;39.50;;;;;;;4.33;70.50;99229.91;24425;1362;3054995;-69
2021/11/19 11:23:47;;;;;;;83.40;31.00;;;;;;;5.09;68.22;99224.75;24417;1355;3052729;-68
2021/11/19 11:26:16;;;;;;;94.30;36.90;;;;;;;5.74;65.65;99222.69;24442;1357;3057313;-69
2021/11/19 11:28:53;;;;;;;84.50;36.40;;;;;;;5.93;65.59;99218.86;24383;1357;3028887;-69
2021/11/19 11:31:43;;;;;;;108.70;44.40;;;;;;;5.65;65.07;99210.00;24390;1362;3055877;-69
2021/11/19 11:34:15;;;;;;;93.50;37.70;;;;;;;5.35;65.85;99207.88;24454;1357;3057036;-73
2021/11/19 11:36:52;;;;;;;85.60;32.90;;;;;;;5.30;65.97;99208.59;24482;1354;3027014;-70
2021/11/19 11:39:33;;;;;;;65.30;27.60;;;;;;;5.29;65.57;99205.14;24500;1354;3055723;-69
2021/11/19 11:42:13;;;;;;;68.00;27.50;;;;;;;4.95;66.88;99204.52;24542;1347;3050499;-72
2021/11/19 11:44:48;;;;;;;62.70;25.10;;;;;;;4.83;67.54;99205.70;24447;1355;3069480;-69
2021/11/19 11:47:35;;;;;;;70.60;27.70;;;;;;;4.90;67.22;99198.63;24506;1360;3051584;-68
2021/11/19 11:50:20;;;;;;;55.70;20.70;;;;;;;4.83;67.41;99195.81;24473;1360;3054436;-69
2021/11/19 11:53:06;;;;;;;;;;;;;;;4.59;68.94;99198.34;24511;1351;3051804;-69
2021/11/19 11:56:03;;;;;;;38.30;16.60;;;;;;;4.28;70.29;99199.77;24453;1363;3059363;-70